Strona główna
METAR-TAF:

METAR-TAF

Lotnisko :

Baza lotnicza

Tulln an der Donau, Austria

Szerokość geograficzna: 48-19N, Długość geograficzna: 016-07E, wysokość: 175 m

METAR: brakujący

czas: 11:59 (09:59 UTC)

Prognoza

Raport powstał 25 godziny i 44 minut temu, godzina 08:15 UTC
Prognoza ważna od 17 godzina 09 UTC do 17 godzina 18 UTC
Wiatr 3 kt z kierunków zmiennych
Widzialność 10 km lub więcej
bezchmurnie
Przejściowo
od 17 godzina 10 UTC do 17 godzina 16 UTC
Wiatr 5 kt od wschód
Mało chmury na wysokości 5000 ft

TAF: LOXT 170815Z 1709/1718 VRB03KT 9999 SKC TEMPO 1710/1716 08005KT FEW050

Obserwacja i prognoza pogody dla ponad 4000 lotnisk (raport METAR i TAF).

Dostępne stacje oznaczono żółtymi i czerwonymi punktami na mapie.

Najedź kursorem aby zobaczyć nazwę stacji.

Kliknij aby zobaczyć obserwacje i prognozy pogody.

Aby zmienić mapę: kliknij na zielony przycisk z czarnym krzyżykiem, aby powiększyć; na zielony przycisk z myślnikiem, aby pomniejszyć; na zielone strzałki, aby przejść do map sąsiednich.


METAR-TAF: